Latest Coastal Weather Observations for Dum In Mirrie

IDD60701

Issued at 10:31 pm CST Wednesday 18 October 2017 (issued every 10 minutes, with the page automatically refreshed every 10 minutes)

About coastal observations | Map of coastal stations | Coastal observations for NT | Marine services | Other Formats
Station Details ID: 014277 Name: DUM IN MIRRIE AIRSTRIP Lat: -12.63 Lon: 130.37 Height: 3.5 m
Data from the previous 72 hours. | See also: Recent months at Dum In Mirrie
Date/Time
CST
Temp
°C
Wind Pressure Rain since
9am
mm
Weather Cloud Vis
km
Sea
Height
m
Swell
Dir  Spd
kts
Gust
kts
hPa Trend Height
m
Period
s
Dir
18/10:30pm 28.4 N 3 5 1008.1 - 0.0 - - - - - - -
18/10:00pm 28.0 NNE 3 4 1008.0 - 0.0 - - - - - - -
18/09:30pm 27.9 N 2 4 1007.7 - 0.0 - - - - - - -
18/09:00pm 26.6 NNE 2 3 1007.6 - 0.0 - - - - - - -
18/08:30pm 26.5 CALM 0 0 1007.4 - 0.0 - - - - - - -
18/08:00pm 26.9 CALM 0 0 1007.0 - 0.0 - - - - - - -
18/07:30pm 28.1 CALM 0 2 1006.3 - 0.0 - - - - - - -
18/07:00pm 28.8 NW 1 3 1006.1 - 0.0 - - - - - - -
18/06:30pm 29.3 NNW 3 6 1005.6 - 0.0 - - - - - - -
18/06:00pm 30.1 NW 3 7 1005.2 - 0.0 - - - - - - -
18/05:30pm 29.8 NW 4 9 1005.0 - 0.0 - - - - - - -
18/05:00pm 31.3 NW 5 8 1005.2 - 0.0 - - - - - - -
18/04:30pm 31.1 NW 2 6 1005.3 - 0.0 - - - - - - -
18/04:00pm 31.2 NNW 4 7 1005.3 - 0.0 - - - - - - -
18/03:30pm 31.6 NW 4 8 1005.6 - 0.0 - - - - - - -
18/03:00pm 31.8 N 4 7 1005.7 - 0.0 - - - - - - -
18/02:30pm 31.2 NNW 4 7 1006.2 - 0.0 - - - - - - -
18/02:00pm 30.8 N 5 8 1006.7 - 0.0 - - - - - - -
18/01:30pm 30.2 NNE 6 11 1007.1 - 0.0 - - - - - - -
18/01:00pm 29.9 N 7 11 1007.8 - 0.0 - - - - - - -
18/12:30pm 29.0 N 7 12 1008.2 - 0.0 - - - - - - -
18/12:00pm 28.3 N 6 11 1008.6 - 0.0 - - - - - - -
18/11:30am 27.5 NE 5 8 1009.3 - 0.0 - - - - - - -
18/11:00am 26.7 NE 6 11 1009.6 - 0.0 - - - - - - -
18/10:30am 25.9 ENE 12 19 1009.9 - 0.0 - - - - - - -
18/10:00am 25.7 E 8 16 1009.8 - 0.0 - - - - - - -
18/09:30am 30.9 SW 4 8 1009.0 - 0.0 - - - - - - -
18/09:00am 31.9 WSW 2 5 1009.0 - 0.0 - - - - - - -
18/08:30am 30.4 SW 2 5 1008.6 - 0.0 - - - - - - -
18/08:00am 30.1 W 4 7 1008.1 - 0.0 - - - - - - -
18/07:30am 29.6 W 2 5 1008.2 - 0.0 - - - - - - -
18/07:00am 29.3 W 3 7 1007.6 - 0.0 - - - - - - -
18/06:30am 29.3 W 4 7 1007.4 - 0.0 - - - - - - -
18/06:00am 29.2 W 3 6 1007.2 - 0.0 - - - - - - -
18/05:30am 29.3 WNW 4 8 1006.8 - 0.0 - - - - - - -
18/05:00am 29.3 W 3 6 1006.5 - 0.0 - - - - - - -
18/04:30am 29.3 WNW 4 8 1006.2 - 0.0 - - - - - - -
18/04:00am 29.2 WNW 4 8 1005.7 - 0.0 - - - - - - -
18/03:30am 29.3 WNW 4 7 1005.8 - 0.0 - - - - - - -
18/03:00am 29.3 WNW 6 12 1005.3 - 0.0 - - - - - - -
18/02:30am 29.2 WNW 5 9 1005.5 - 0.0 - - - - - - -
18/02:00am 29.1 WNW 6 9 1005.7 - 0.0 - - - - - - -
18/01:30am 29.3 WNW 6 11 1006.0 - 0.0 - - - - - - -
18/01:00am 29.3 WNW 6 9 1006.2 - 0.0 - - - - - - -
18/12:30am 29.4 WNW 5 10 1006.5 - 0.0 - - - - - - -
18/12:00am 29.4 WNW 6 11 1006.7 - 0.0 - - - - - - -
 
Date/Time
CST
Temp
°C
Wind Pressure Rain since
9am
mm
Weather Cloud Vis
km
Sea
Height
m
Swell
Dir  Spd
kts
Gust
kts
hPa Trend Height
m
Period
s
Dir
17/11:30pm 29.6 W 5 10 1006.8 - 0.0 - - - - - - -
17/11:00pm 29.5 W 5 10 1006.9 - 0.0 - - - - - - -
17/10:30pm 29.5 W 5 10 1007.0 - 0.0 - - - - - - -
17/10:00pm 29.5 W 6 12 1006.9 - 0.0 - - - - - - -
17/09:30pm 29.6 W 6 11 1006.6 - 0.0 - - - - - - -
17/09:00pm 29.7 W 6 11 1006.4 - 0.0 - - - - - - -
17/08:30pm 29.7 WNW 5 9 1006.0 - 0.0 - - - - - - -
17/08:00pm 29.8 W 6 11 1006.0 - 0.0 - - - - - - -
17/07:30pm 29.9 W 8 14 1005.5 - 0.0 - - - - - - -
17/07:00pm 29.9 WNW 7 13 1005.0 - 0.0 - - - - - - -
17/06:30pm 30.1 WNW 7 13 1004.6 - 0.0 - - - - - - -
17/06:00pm 30.9 WNW 5 10 1004.9 - 0.0 - - - - - - -
17/05:30pm 31.4 W 6 9 1004.8 - 0.0 - - - - - - -
17/05:00pm 31.8 WNW 6 11 1004.6 - 0.0 - - - - - - -
17/04:30pm 31.8 WNW 6 11 1004.3 - 0.0 - - - - - - -
17/04:00pm 32.0 WNW 5 10 1004.4 - 0.0 - - - - - - -
17/03:30pm 32.4 WNW 6 11 1004.5 - 0.0 - - - - - - -
17/03:00pm 32.4 WNW 6 12 1004.7 - 0.0 - - - - - - -
17/02:30pm 32.4 W 6 11 1004.9 - 0.0 - - - - - - -
17/02:00pm 32.9 W 6 11 1005.3 - 0.0 - - - - - - -
17/01:30pm 32.7 W 7 11 1006.0 - 0.0 - - - - - - -
17/01:00pm 33.0 WNW 5 9 1006.6 - 0.0 - - - - - - -
17/12:30pm 32.9 W 5 9 1007.2 - 0.0 - - - - - - -
17/12:00pm 32.7 W 6 11 1007.3 - 0.0 - - - - - - -
17/11:30am 32.0 W 8 12 1007.8 - 0.0 - - - - - - -
17/11:00am 31.9 WSW 7 10 1008.4 - 0.0 - - - - - - -
17/10:30am 32.1 W 6 10 1008.8 - 0.0 - - - - - - -
17/10:00am 32.4 W 4 7 1009.1 - 0.0 - - - - - - -
17/09:30am 32.2 W 3 6 1009.0 - 0.0 - - - - - - -
17/09:00am 31.7 W 4 7 1008.7 - 0.0 - - - - - - -
17/08:30am 30.6 W 5 9 1008.3 - 0.0 - - - - - - -
17/08:00am 30.6 WNW 4 7 1007.8 - 0.0 - - - - - - -
17/07:30am 29.6 W 5 9 1007.3 - 0.0 - - - - - - -
17/07:00am 29.5 W 5 9 1007.0 - 0.0 - - - - - - -
17/06:30am 29.2 WNW 4 8 1006.6 - 0.0 - - - - - - -
17/06:00am 29.3 WNW 5 9 1006.4 - 0.0 - - - - - - -
17/05:30am 29.1 WNW 4 8 1006.1 - 0.0 - - - - - - -
17/05:00am 29.2 WNW 5 10 1005.8 - 0.0 - - - - - - -
17/04:30am 29.3 W 5 10 1005.5 - 0.0 - - - - - - -
17/04:00am 29.4 W 7 13 1005.3 - 0.0 - - - - - - -
17/03:30am 29.4 W 6 11 1005.2 - 0.0 - - - - - - -
17/03:00am 29.4 WNW 7 12 1005.2 - 0.0 - - - - - - -
17/02:30am 29.3 WNW 6 12 1005.4 - 0.0 - - - - - - -
17/02:00am 29.4 WNW 5 9 1005.7 - 0.0 - - - - - - -
17/01:30am 29.3 NW 5 10 1005.8 - 0.0 - - - - - - -
17/01:00am 29.4 WNW 5 9 1005.9 - 0.0 - - - - - - -
17/12:30am 29.4 WNW 5 10 1006.1 - 0.0 - - - - - - -
17/12:00am 29.3 WNW 5 9 1006.1 - 0.0 - - - - - - -
 
Date/Time
CST
Temp
°C
Wind Pressure Rain since
9am
mm
Weather Cloud Vis
km
Sea
Height
m
Swell
Dir  Spd
kts
Gust
kts
hPa Trend Height
m
Period
s
Dir
16/11:30pm 29.4 NW 5 9 1006.2 - 0.0 - - - - - - -
16/11:00pm 29.5 WNW 5 9 1006.2 - 0.0 - - - - - - -
16/10:30pm 29.5 NW 5 10 1006.5 - 0.0 - - - - - - -
16/10:00pm 29.6 WNW 6 10 1006.3 - 0.0 - - - - - - -
16/09:30pm 29.6 WNW 4 7 1006.4 - 0.0 - - - - - - -
16/09:00pm 29.6 WNW 4 7 1006.3 - 0.0 - - - - - - -
16/08:30pm 29.6 NW 2 4 1006.5 - 0.0 - - - - - - -
16/08:00pm 29.8 NW 3 7 1006.3 - 0.0 - - - - - - -
16/07:30pm 29.8 WNW 4 8 1005.6 - 0.0 - - - - - - -
16/07:00pm 29.9 W 4 8 1005.2 - 0.0 - - - - - - -
16/06:30pm 30.2 WNW 5 9 1004.6 - 0.0 - - - - - - -
16/06:00pm 31.0 W 6 11 1004.4 - 0.0 - - - - - - -
16/05:30pm 31.3 WNW 7 11 1004.3 - 0.0 - - - - - - -
16/05:00pm 31.8 W 6 11 1004.2 - 0.0 - - - - - - -
16/04:30pm 32.1 W 7 11 1004.3 - 0.0 - - - - - - -
16/04:00pm 32.0 W 6 13 1004.2 - 0.0 - - - - - - -
16/03:30pm 32.9 W 6 11 1004.3 - 0.0 - - - - - - -
16/03:00pm 32.6 WNW 5 10 1004.7 - 0.0 - - - - - - -
16/02:30pm 32.5 WNW 5 9 1004.8 - 0.0 - - - - - - -
16/02:00pm 32.6 NW 4 7 1005.2 - 0.0 - - - - - - -
16/01:30pm 32.1 WNW 5 9 1005.8 - 0.0 - - - - - - -
16/01:00pm 32.2 NW 5 8 1006.1 - 0.0 - - - - - - -
16/12:30pm 32.6 WNW 5 8 1006.6 - 0.0 - - - - - - -
16/12:00pm 32.0 WNW 5 7 1007.0 - 0.0 - - - - - - -
16/11:30am 32.0 WSW 4 6 1007.4 - 0.0 - - - - - - -
16/11:00am 31.6 WSW 4 6 1007.8 - 0.0 - - - - - - -
16/10:30am 31.7 W 5 7 1008.2 - 0.0 - - - - - - -
16/10:00am 31.4 WSW 4 6 1008.5 - 0.0 - - - - - - -
16/09:30am 32.0 WSW 3 5 1008.6 - 0.0 - - - - - - -
16/09:00am 30.9 WSW 3 5 1008.7 - 0.0 - - - - - - -
16/08:30am 30.5 WSW 3 5 1008.8 - 0.0 - - - - - - -
16/08:00am 29.8 E 1 3 1008.7 - 0.0 - - - - - - -
16/07:30am 29.3 SSE 1 3 1008.4 - 0.0 - - - - - - -
16/07:00am 29.3 SW 1 3 1008.4 - 0.0 - - - - - - -
16/06:30am 29.4 SW 2 4 1008.2 - 0.0 - - - - - - -
16/06:00am 29.4 W 8 12 1007.4 - 0.0 - - - - - - -
16/05:30am 28.9 SSW 1 4 1007.5 - 0.0 - - - - - - -
16/05:00am 29.2 SW 4 7 1007.4 - 0.0 - - - - - - -
16/04:30am 29.3 WSW 5 9 1007.0 - 0.0 - - - - - - -
16/04:00am 29.2 W 6 11 1006.9 - 0.0 - - - - - - -
16/03:30am 29.1 W 7 12 1006.5 - 0.0 - - - - - - -
16/03:00am 29.2 WNW 7 12 1006.4 - 0.0 - - - - - - -
16/02:30am 29.0 WNW 5 11 1006.5 - 0.0 - - - - - - -
16/02:00am 29.0 WNW 5 9 1006.9 - 0.0 - - - - - - -
16/01:30am 29.0 NW 4 9 1007.1 - 0.0 - - - - - - -
16/01:00am 28.9 NNW 3 5 1007.7 - 0.0 - - - - - - -
16/12:30am 29.0 WNW 3 6 1008.0 - 0.0 - - - - - - -
16/12:00am 28.7 NW 3 5 1008.1 - 0.0 - - - - - - -
 
Date/Time
CST
Temp
°C
Wind Pressure Rain since
9am
mm
Weather Cloud Vis
km
Sea
Height
m
Swell
Dir  Spd
kts
Gust
kts
hPa Trend Height
m
Period
s
Dir
15/11:30pm 28.1 CALM 0 1 1008.6 - 0.0 - - - - - - -
15/11:00pm 28.6 NW 3 5 1008.0 - 0.0 - - - - - - -

Other Formats:

Comma delimited format used in spreadsheet applications
http://www.bom.gov.au/fwo/IDD60701/IDD60701.94116.axf

JavaScript Object Notation format (JSON) in row-major order
http://www.bom.gov.au/fwo/IDD60701/IDD60701.94116.json